createdAt,value
2023-04-09T00:00:07.796Z,49.38
2023-04-09T00:01:07.846Z,48.19
2023-04-09T00:02:07.791Z,43.04
2023-04-09T00:03:07.931Z,42.47
2023-04-09T00:04:07.935Z,44.65
2023-04-09T00:05:07.759Z,48.70
2023-04-09T00:06:07.740Z,49.34
2023-04-09T00:07:07.857Z,43.28
2023-04-09T00:08:07.804Z,42.79
2023-04-09T00:09:07.767Z,42.96
2023-04-09T00:10:07.731Z,42.91
2023-04-09T00:11:07.727Z,55.10
2023-04-09T00:12:07.708Z,50.77
2023-04-09T00:13:07.723Z,43.09
2023-04-09T00:14:07.722Z,42.61
2023-04-09T00:15:11.051Z,42.74
2023-04-09T00:16:08.900Z,43.27
2023-04-09T00:17:07.701Z,42.75
2023-04-09T00:18:07.780Z,42.49
2023-04-09T00:19:07.710Z,49.24
2023-04-09T00:20:07.678Z,43.46
2023-04-09T00:21:07.640Z,48.36
2023-04-09T00:22:07.657Z,42.49
2023-04-09T00:23:07.630Z,43.62
2023-04-09T00:24:07.701Z,54.40
2023-04-09T00:25:07.640Z,42.58
2023-04-09T00:26:07.711Z,42.39
2023-04-09T00:27:07.610Z,43.84
2023-04-09T00:28:07.675Z,43.05
2023-04-09T00:29:07.614Z,43.68
2023-04-09T00:30:07.575Z,44.06
2023-04-09T00:31:07.647Z,46.67
2023-04-09T00:32:07.573Z,51.38
2023-04-09T00:33:07.589Z,45.23
2023-04-09T00:34:07.565Z,46.15
2023-04-09T00:35:07.587Z,50.04
2023-04-09T00:36:07.611Z,45.65
2023-04-09T00:37:07.537Z,48.87
2023-04-09T00:38:07.513Z,51.65
2023-04-09T00:39:07.506Z,47.92
2023-04-09T00:40:07.513Z,55.35
2023-04-09T00:41:07.504Z,44.12
2023-04-09T00:42:07.480Z,43.94
2023-04-09T00:43:07.483Z,50.20
2023-04-09T00:44:07.515Z,48.35
2023-04-09T00:45:07.471Z,55.76
2023-04-09T00:46:07.490Z,43.55
2023-04-09T00:47:07.453Z,43.19
2023-04-09T00:48:07.440Z,48.05
2023-04-09T00:49:07.445Z,43.15
2023-04-09T00:50:07.437Z,52.64
2023-04-09T00:51:07.438Z,44.20
2023-04-09T00:52:07.474Z,47.17
2023-04-09T00:53:07.406Z,43.06
2023-04-09T00:54:07.398Z,42.37
2023-04-09T00:55:07.390Z,42.82
2023-04-09T00:56:07.365Z,48.20
2023-04-09T00:57:08.413Z,42.72
2023-04-09T00:58:07.402Z,42.63
2023-04-09T00:59:07.367Z,42.33
2023-04-09T01:00:07.346Z,44.25
2023-04-09T01:01:07.352Z,43.21
2023-04-09T01:02:07.376Z,42.24
2023-04-09T01:03:07.412Z,42.39
2023-04-09T01:04:07.343Z,49.51
2023-04-09T01:05:07.307Z,45.20
2023-04-09T01:06:07.286Z,49.03
2023-04-09T01:07:07.289Z,49.85
2023-04-09T01:08:07.280Z,42.82
2023-04-09T01:09:07.290Z,42.42
2023-04-09T01:10:07.281Z,42.35
2023-04-09T01:11:07.272Z,47.52
2023-04-09T01:12:07.283Z,43.07
2023-04-09T01:13:07.253Z,52.86
2023-04-09T01:14:07.252Z,48.43
2023-04-09T01:15:07.236Z,58.20
2023-04-09T01:16:07.345Z,51.90
2023-04-09T01:17:07.230Z,46.71
2023-04-09T01:18:07.223Z,46.74
2023-04-09T01:19:07.199Z,48.23
2023-04-09T01:20:07.201Z,42.29
2023-04-09T01:21:07.192Z,42.16
2023-04-09T01:22:07.174Z,42.15
2023-04-09T01:23:07.223Z,42.20
2023-04-09T01:24:07.186Z,42.33
2023-04-09T01:25:07.189Z,47.49
2023-04-09T01:26:07.183Z,42.61
2023-04-09T01:27:07.133Z,42.28
2023-04-09T01:28:07.136Z,42.87
2023-04-09T01:29:07.134Z,47.78
2023-04-09T01:30:07.201Z,42.61
2023-04-09T01:31:07.260Z,47.68
2023-04-09T01:32:07.147Z,43.89
2023-04-09T01:33:07.114Z,48.56
2023-04-09T01:34:07.070Z,46.58
2023-04-09T01:35:07.056Z,43.48
2023-04-09T01:36:07.214Z,49.10
2023-04-09T01:37:07.067Z,43.03
2023-04-09T01:38:07.109Z,42.30
2023-04-09T01:39:07.039Z,42.62
2023-04-09T01:40:08.018Z,42.49
2023-04-09T01:41:07.074Z,42.95
2023-04-09T01:42:07.089Z,49.08
2023-04-09T01:43:07.066Z,44.54
2023-04-09T01:44:07.025Z,49.49
2023-04-09T01:45:07.051Z,44.05
2023-04-09T01:46:07.022Z,43.05
2023-04-09T01:47:07.008Z,50.97
2023-04-09T01:48:06.983Z,49.56
2023-04-09T01:49:06.993Z,42.55
2023-04-09T01:50:06.971Z,42.44
2023-04-09T01:51:06.976Z,42.70
2023-04-09T01:52:06.991Z,49.92
2023-04-09T01:53:06.946Z,42.88
2023-04-09T01:54:06.916Z,43.32
2023-04-09T01:55:06.935Z,54.55
2023-04-09T01:56:06.930Z,42.73
2023-04-09T01:57:06.953Z,42.45
2023-04-09T01:58:06.929Z,42.44
2023-04-09T01:59:06.921Z,42.17
2023-04-09T02:00:06.895Z,42.81
2023-04-09T02:01:06.930Z,51.50
2023-04-09T02:02:06.926Z,45.77
2023-04-09T02:03:06.973Z,42.45
2023-04-09T02:04:07.048Z,46.58
2023-04-09T02:05:06.845Z,42.39
2023-04-09T02:06:06.842Z,42.22
2023-04-09T02:07:06.874Z,43.06
2023-04-09T02:08:06.841Z,50.58
2023-04-09T02:09:07.837Z,44.53
2023-04-09T02:10:06.877Z,44.54
2023-04-09T02:11:06.834Z,49.48
2023-04-09T02:12:06.808Z,52.63
2023-04-09T02:13:06.823Z,42.83
2023-04-09T02:14:06.829Z,53.23
2023-04-09T02:15:06.771Z,43.55
2023-04-09T02:16:06.786Z,51.91
2023-04-09T02:17:06.779Z,43.45
2023-04-09T02:18:06.787Z,44.27
2023-04-09T02:19:07.617Z,43.95
2023-04-09T02:20:06.734Z,44.08
2023-04-09T02:21:06.736Z,44.07
2023-04-09T02:22:06.763Z,43.05
2023-04-09T02:23:06.713Z,42.93
2023-04-09T02:24:06.759Z,48.74
2023-04-09T02:25:06.734Z,47.90
2023-04-09T02:26:06.699Z,43.09
2023-04-09T02:27:07.654Z,42.52
2023-04-09T02:28:06.779Z,43.06
2023-04-09T02:29:06.688Z,45.79
2023-04-09T02:30:06.734Z,42.61
2023-04-09T02:31:06.671Z,42.30
2023-04-09T02:32:06.697Z,46.93
2023-04-09T02:33:06.655Z,48.55
2023-04-09T02:34:06.671Z,44.21
2023-04-09T02:35:06.680Z,43.48
2023-04-09T02:36:06.714Z,48.89
2023-04-09T02:37:06.634Z,42.89
2023-04-09T02:38:06.659Z,43.55
2023-04-09T02:39:06.604Z,53.87
2023-04-09T02:40:06.597Z,47.54
2023-04-09T02:41:06.589Z,42.54
2023-04-09T02:42:06.611Z,42.31
2023-04-09T02:43:06.643Z,48.17
2023-04-09T02:44:06.552Z,42.26
2023-04-09T02:45:06.548Z,42.06
2023-04-09T02:46:06.570Z,42.58
2023-04-09T02:47:06.550Z,48.97
2023-04-09T02:48:06.547Z,50.39
2023-04-09T02:49:06.524Z,53.58
2023-04-09T02:50:06.503Z,47.96
2023-04-09T02:51:06.531Z,43.06
2023-04-09T02:52:06.504Z,49.31
2023-04-09T02:53:06.493Z,48.10
2023-04-09T02:54:06.492Z,43.86
2023-04-09T02:55:06.462Z,43.79
2023-04-09T02:56:06.502Z,43.51
2023-04-09T02:57:06.478Z,42.63
2023-04-09T02:58:06.438Z,53.59
2023-04-09T02:59:06.454Z,44.84
2023-04-09T03:00:06.442Z,50.14
2023-04-09T03:01:06.472Z,42.10
2023-04-09T03:02:06.610Z,42.41
2023-04-09T03:03:06.516Z,42.61
2023-04-09T03:04:06.489Z,42.93
2023-04-09T03:05:06.393Z,42.65
2023-04-09T03:06:06.405Z,43.82
2023-04-09T03:07:06.411Z,48.53
2023-04-09T03:08:06.456Z,42.29
2023-04-09T03:09:06.461Z,42.61
2023-04-09T03:10:06.360Z,42.57
2023-04-09T03:11:06.343Z,42.85
2023-04-09T03:12:06.346Z,48.34
2023-04-09T03:13:06.380Z,52.31
2023-04-09T03:14:06.335Z,42.35
2023-04-09T03:15:06.339Z,42.10
2023-04-09T03:16:07.296Z,43.21
2023-04-09T03:17:06.320Z,43.86
2023-04-09T03:18:06.351Z,58.92
2023-04-09T03:19:06.337Z,50.10
2023-04-09T03:20:06.316Z,42.83
2023-04-09T03:21:06.278Z,42.78
2023-04-09T03:22:06.291Z,42.99
2023-04-09T03:23:06.258Z,47.60
2023-04-09T03:24:06.304Z,44.84
2023-04-09T03:25:06.259Z,52.58
2023-04-09T03:26:06.283Z,43.37
2023-04-09T03:27:06.248Z,45.34
2023-04-09T03:28:06.379Z,46.70
2023-04-09T03:29:06.229Z,42.94
2023-04-09T03:30:06.213Z,44.17
2023-04-09T03:31:06.266Z,53.43
2023-04-09T03:32:06.188Z,49.53
2023-04-09T03:33:06.227Z,44.79
2023-04-09T03:34:06.241Z,44.64
2023-04-09T03:35:06.190Z,54.00
2023-04-09T03:36:06.208Z,48.53
2023-04-09T03:37:06.182Z,47.09
2023-04-09T03:38:06.199Z,56.05
2023-04-09T03:39:06.160Z,51.06
2023-04-09T03:40:06.132Z,49.39
2023-04-09T03:41:06.167Z,44.24
2023-04-09T03:42:06.158Z,48.14
2023-04-09T03:43:06.202Z,46.14
2023-04-09T03:44:06.128Z,49.26
2023-04-09T03:45:06.992Z,52.16
2023-04-09T03:46:06.666Z,52.53
2023-04-09T03:47:06.137Z,44.82
2023-04-09T04:03:58.166Z,50.97
2023-04-09T04:04:58.074Z,51.57
2023-04-09T04:05:58.067Z,52.88
2023-04-09T04:06:59.224Z,59.51
2023-04-09T04:07:59.211Z,55.78
2023-04-09T04:08:59.202Z,57.11
2023-04-09T04:10:00.821Z,51.37
2023-04-09T04:10:59.174Z,50.47
2023-04-09T04:11:59.173Z,53.24
2023-04-09T04:12:59.178Z,54.34
2023-04-09T04:13:59.134Z,50.89
2023-04-09T04:14:59.128Z,46.76
2023-04-09T04:15:59.127Z,47.70
2023-04-09T04:16:59.151Z,51.86
2023-04-09T04:17:59.175Z,52.56
2023-04-09T04:18:59.095Z,47.41
2023-04-09T04:19:59.103Z,46.44
2023-04-09T04:20:59.105Z,47.03
2023-04-09T04:21:59.086Z,45.12
2023-04-09T04:22:59.101Z,46.16
2023-04-09T04:23:59.067Z,45.06
2023-04-09T04:24:59.093Z,46.02
2023-04-09T04:25:59.037Z,51.42
2023-04-09T04:26:59.057Z,56.89
2023-04-09T04:27:59.053Z,48.15
2023-04-09T04:28:59.049Z,48.52
2023-04-09T04:29:59.053Z,56.21
2023-04-09T04:30:59.002Z,44.45
2023-04-09T04:31:59.116Z,51.29
2023-04-09T04:32:59.077Z,52.67
2023-04-09T04:33:58.977Z,45.17
2023-04-09T04:34:59.019Z,45.39
2023-04-09T04:35:59.033Z,44.90
2023-04-09T04:36:58.952Z,45.75
2023-04-09T04:37:58.945Z,51.02
2023-04-09T04:38:58.934Z,52.33
2023-04-09T04:39:58.946Z,50.65
2023-04-09T04:40:58.928Z,51.71
2023-04-09T04:41:58.914Z,45.68
2023-04-09T04:42:58.912Z,49.84
2023-04-09T04:43:58.916Z,46.90
2023-04-09T04:44:58.913Z,46.88
2023-04-09T04:45:58.931Z,49.71
2023-04-09T04:46:58.891Z,46.04
2023-04-09T04:47:59.014Z,45.87
2023-04-09T04:48:58.867Z,44.95
2023-04-09T04:49:58.884Z,50.91
2023-04-09T04:50:58.861Z,52.10
2023-04-09T04:51:58.886Z,49.77
2023-04-09T04:52:58.841Z,46.05
2023-04-09T04:53:58.822Z,46.92
2023-04-09T04:54:58.829Z,52.54
2023-04-09T04:55:58.804Z,49.86
2023-04-09T04:56:58.809Z,54.35
2023-04-09T04:57:58.780Z,48.92
2023-04-09T04:58:58.804Z,50.40
2023-04-09T04:59:58.779Z,49.46
2023-04-09T05:00:58.794Z,44.27
2023-04-09T05:01:58.947Z,49.96
2023-04-09T05:02:58.981Z,45.03
2023-04-09T05:03:58.901Z,44.62
2023-04-09T05:04:58.767Z,49.71
2023-04-09T05:05:59.514Z,46.35
2023-04-09T05:06:58.735Z,45.54
2023-04-09T05:07:58.798Z,45.65
2023-04-09T05:08:58.791Z,49.93
2023-04-09T05:09:58.866Z,47.25
2023-04-09T05:10:58.689Z,47.43
2023-04-09T05:11:58.727Z,55.48
2023-04-09T05:12:58.695Z,50.67
2023-04-09T05:13:58.667Z,44.45
2023-04-09T05:14:58.676Z,50.19
2023-04-09T05:15:58.662Z,57.56
2023-04-09T05:16:58.792Z,58.76
2023-04-09T05:17:58.676Z,52.14
2023-04-09T05:18:58.656Z,51.73
2023-04-09T05:19:58.653Z,45.86
2023-04-09T05:20:58.645Z,45.57
2023-04-09T05:21:58.621Z,60.06
2023-04-09T05:22:58.616Z,50.35
2023-04-09T05:23:59.282Z,44.06
2023-04-09T05:24:58.584Z,44.43
2023-04-09T05:25:58.617Z,53.19
2023-04-09T05:26:59.865Z,52.07
2023-04-09T05:27:58.574Z,50.38
2023-04-09T05:28:58.576Z,47.25
2023-04-09T05:30:00.661Z,57.84
2023-04-09T05:30:59.571Z,44.06
2023-04-09T05:31:58.541Z,54.07
2023-04-09T05:32:58.583Z,45.06
2023-04-09T05:33:58.548Z,49.95
2023-04-09T05:34:58.543Z,52.64
2023-04-09T05:35:58.553Z,53.26
2023-04-09T05:36:58.503Z,61.44
2023-04-09T05:37:58.496Z,50.85
2023-04-09T05:38:58.474Z,52.74
2023-04-09T05:39:58.487Z,54.35
2023-04-09T05:40:58.469Z,54.17
2023-04-09T05:41:58.511Z,62.88
2023-04-09T05:42:59.315Z,51.60
2023-04-09T05:44:00.522Z,50.71
2023-04-09T05:44:58.468Z,50.51
2023-04-09T05:45:58.430Z,44.77
2023-04-09T05:46:58.419Z,53.28
2023-04-09T05:47:58.445Z,46.38
2023-04-09T05:48:58.464Z,51.48
2023-04-09T05:49:58.397Z,51.28
2023-04-09T05:51:00.347Z,46.92
2023-04-09T05:51:58.453Z,51.40
2023-04-09T05:52:58.449Z,53.97
2023-04-09T05:53:58.402Z,53.61
2023-04-09T05:54:58.393Z,49.30
2023-04-09T05:55:58.344Z,54.56
2023-04-09T05:56:58.356Z,51.11
2023-04-09T05:57:58.376Z,49.71
2023-04-09T05:58:58.368Z,54.46
2023-04-09T05:59:58.372Z,57.11
2023-04-09T06:00:58.309Z,55.80
2023-04-09T06:01:58.335Z,59.48
2023-04-09T06:02:58.359Z,48.91
2023-04-09T06:03:59.049Z,51.19
2023-04-09T06:04:58.921Z,54.09
2023-04-09T06:05:58.271Z,45.71
2023-04-09T06:06:58.313Z,54.97
2023-04-09T06:07:58.268Z,45.42
2023-04-09T06:08:58.254Z,49.48
2023-04-09T06:09:58.268Z,45.34
2023-04-09T06:10:58.235Z,54.69
2023-04-09T06:11:58.232Z,58.37
2023-04-09T06:12:58.210Z,54.61
2023-04-09T06:13:58.232Z,49.88
2023-04-09T06:14:58.193Z,57.59
2023-04-09T06:15:58.247Z,57.11
2023-04-09T06:16:58.260Z,56.10
2023-04-09T06:17:59.457Z,49.31
2023-04-09T06:18:59.193Z,56.55
2023-04-09T06:19:58.140Z,53.83
2023-04-09T06:20:58.147Z,58.14
2023-04-09T06:21:58.813Z,56.09
2023-04-09T06:22:58.137Z,51.12
2023-04-09T06:23:58.143Z,62.07
2023-04-09T06:24:58.137Z,46.55
2023-04-09T06:25:58.146Z,55.96
2023-04-09T06:26:58.114Z,58.10
2023-04-09T06:27:58.095Z,53.01
2023-04-09T06:28:58.144Z,56.64
2023-04-09T06:29:58.184Z,55.91
2023-04-09T06:30:58.133Z,54.63
2023-04-09T06:31:58.106Z,62.69
2023-04-09T06:32:58.060Z,55.12
2023-04-09T06:33:58.062Z,56.94
2023-04-09T06:34:58.084Z,48.59
2023-04-09T06:35:58.121Z,47.43
2023-04-09T06:36:58.030Z,47.66
2023-04-09T06:37:58.029Z,48.45
2023-04-09T06:38:58.042Z,56.11
2023-04-09T06:40:01.398Z,56.05
2023-04-09T06:40:59.178Z,55.58
2023-04-09T06:41:58.009Z,56.29
2023-04-09T06:42:58.002Z,50.33
2023-04-09T06:43:58.066Z,55.38
2023-04-09T06:44:57.977Z,51.70
2023-04-09T06:45:58.824Z,63.96
2023-04-09T06:46:57.985Z,49.32
2023-04-09T06:47:58.049Z,53.17
2023-04-09T06:48:57.969Z,54.48
2023-04-09T06:49:57.919Z,54.22
2023-04-09T06:50:57.971Z,43.43
2023-04-09T06:51:57.920Z,59.70
2023-04-09T06:52:57.920Z,45.24
2023-04-09T06:53:58.007Z,51.73
2023-04-09T06:54:57.886Z,53.51
2023-04-09T06:55:57.893Z,47.84
2023-04-09T06:56:57.915Z,58.75
2023-04-09T06:57:57.885Z,56.58
2023-04-09T06:58:58.177Z,54.76
2023-04-09T06:59:57.892Z,54.20
2023-04-09T07:00:57.858Z,55.83
2023-04-09T07:01:57.927Z,63.78
2023-04-09T07:02:58.044Z,58.26
2023-04-09T07:03:58.023Z,57.16
2023-04-09T07:04:57.826Z,60.66
2023-04-09T07:05:57.848Z,54.59
2023-04-09T07:06:57.827Z,59.54
2023-04-09T07:07:57.855Z,58.19
2023-04-09T07:08:57.800Z,53.80
2023-04-09T07:09:57.876Z,54.06
2023-04-09T07:10:57.798Z,61.14
2023-04-09T07:11:57.883Z,56.35
2023-04-09T07:12:57.803Z,55.00
2023-04-09T07:13:57.741Z,53.04
2023-04-09T07:14:57.749Z,63.68
2023-04-09T07:15:57.748Z,46.98
2023-04-09T07:16:57.770Z,54.77
2023-04-09T07:17:58.006Z,58.46
2023-04-09T07:18:57.707Z,55.84
2023-04-09T07:19:57.905Z,55.84
2023-04-09T07:20:57.714Z,52.84
2023-04-09T07:21:57.958Z,57.62
2023-04-09T07:22:57.706Z,55.15
2023-04-09T07:23:57.746Z,61.35
2023-04-09T07:24:57.700Z,49.03
2023-04-09T07:25:57.694Z,53.59
2023-04-09T07:26:57.646Z,56.14
2023-04-09T07:27:57.642Z,66.03
2023-04-09T07:28:57.655Z,60.11
2023-04-09T07:29:57.914Z,55.85
2023-04-09T07:30:57.639Z,61.52
2023-04-09T07:31:57.685Z,50.85
2023-04-09T07:32:57.601Z,64.30
2023-04-09T07:33:57.689Z,62.47
2023-04-09T07:34:57.699Z,59.66
2023-04-09T07:35:58.362Z,60.41
2023-04-09T07:36:57.632Z,55.85
2023-04-09T07:37:57.544Z,66.90
2023-04-09T07:38:57.567Z,62.38
2023-04-09T07:39:57.602Z,53.86
2023-04-09T07:40:57.578Z,54.18
2023-04-09T07:41:57.639Z,53.42
2023-04-09T07:42:57.525Z,56.61
2023-04-09T07:43:57.568Z,51.80
2023-04-09T07:44:57.509Z,60.40
2023-04-09T07:45:57.501Z,59.64
2023-04-09T07:46:57.591Z,46.96
2023-04-09T07:47:57.546Z,56.90
2023-04-09T07:48:57.494Z,58.25
2023-04-09T07:49:57.587Z,63.34
2023-04-09T07:50:57.491Z,64.54
2023-04-09T07:51:57.525Z,54.29
2023-04-09T07:52:57.496Z,55.62
2023-04-09T07:53:57.432Z,58.50
2023-04-09T07:54:57.937Z,51.97
2023-04-09T07:55:57.447Z,59.23
2023-04-09T07:56:57.401Z,63.07
2023-04-09T07:57:57.462Z,63.93
2023-04-09T07:58:57.487Z,62.77
2023-04-09T07:59:57.383Z,58.78
2023-04-09T08:00:57.375Z,57.07
2023-04-09T08:01:57.428Z,59.14
2023-04-09T08:02:57.713Z,59.14
2023-04-09T08:03:57.579Z,62.74
2023-04-09T08:04:57.454Z,59.59
2023-04-09T08:05:57.329Z,60.70
2023-04-09T08:06:57.395Z,57.86
2023-04-09T08:07:57.326Z,50.39
2023-04-09T08:08:57.427Z,60.76
2023-04-09T08:09:57.311Z,64.13
2023-04-09T08:10:57.306Z,62.78
2023-04-09T08:11:57.276Z,58.46
2023-04-09T08:12:57.336Z,56.80
2023-04-09T08:13:57.286Z,52.07
2023-04-09T08:14:57.254Z,59.69
2023-04-09T08:15:57.336Z,62.00
2023-04-09T08:16:57.275Z,57.26
2023-04-09T08:17:57.257Z,52.00
2023-04-09T08:18:57.316Z,63.03
2023-04-09T08:19:57.374Z,58.47
2023-04-09T08:20:57.229Z,59.34
2023-04-09T08:21:57.212Z,56.93
2023-04-09T08:22:57.189Z,63.82
2023-04-09T08:23:58.217Z,53.62
2023-04-09T08:24:57.189Z,45.40
2023-04-09T08:25:57.173Z,61.05
2023-04-09T08:26:57.193Z,58.25
2023-04-09T08:27:57.140Z,60.71
2023-04-09T08:28:57.190Z,63.80
2023-04-09T08:29:57.212Z,61.44
2023-04-09T08:30:57.237Z,56.43
2023-04-09T08:31:57.166Z,61.83
2023-04-09T08:32:57.171Z,60.24
2023-04-09T08:33:57.112Z,59.28
2023-04-09T08:34:57.117Z,61.95
2023-04-09T08:35:57.126Z,56.99
2023-04-09T08:37:29.766Z,62.76
2023-04-09T08:37:57.091Z,56.36
2023-04-09T08:38:57.165Z,63.83
2023-04-09T08:39:57.068Z,55.92
2023-04-09T08:40:57.124Z,58.24
2023-04-09T08:41:57.076Z,58.13
2023-04-09T08:42:57.100Z,65.87
2023-04-09T08:43:59.215Z,65.82
2023-04-09T08:44:58.042Z,59.68
2023-04-09T08:45:57.123Z,65.29
2023-04-09T08:46:58.454Z,61.65
2023-04-09T08:47:57.081Z,62.67
2023-04-09T08:48:57.004Z,66.43
2023-04-09T08:49:56.997Z,66.80
2023-04-09T08:50:56.994Z,64.04
2023-04-09T08:51:57.009Z,59.44
2023-04-09T08:52:56.959Z,60.11
2023-04-09T08:53:57.002Z,65.46
2023-04-09T08:54:56.989Z,63.40
2023-04-09T08:55:56.946Z,63.53
2023-04-09T08:56:56.953Z,59.14
2023-04-09T08:57:56.964Z,60.76
2023-04-09T08:58:56.919Z,58.12
2023-04-09T08:59:56.954Z,60.36
2023-04-09T09:00:56.898Z,64.94
2023-04-09T09:01:56.995Z,64.67
2023-04-09T09:02:57.014Z,58.00
2023-04-09T09:03:56.952Z,61.57
2023-04-09T09:04:56.888Z,62.15
2023-04-09T09:05:56.865Z,59.23
2023-04-09T09:06:56.940Z,64.92
2023-04-09T09:07:56.923Z,59.68
2023-04-09T09:08:56.863Z,60.45
2023-04-09T09:09:56.838Z,60.20
2023-04-09T09:10:56.823Z,62.22
2023-04-09T09:11:56.897Z,63.08
2023-04-09T09:12:56.836Z,63.20
2023-04-09T09:13:56.811Z,63.19
2023-04-09T09:14:56.923Z,57.92
2023-04-09T09:15:56.862Z,61.86
2023-04-09T09:16:57.934Z,59.73
2023-04-09T09:17:56.951Z,58.38
2023-04-09T09:18:57.669Z,58.28
2023-04-09T09:19:56.874Z,58.95
2023-04-09T09:20:56.767Z,67.25
2023-04-09T09:21:56.790Z,63.02
2023-04-09T09:22:57.104Z,64.16
2023-04-09T09:23:56.746Z,58.08
2023-04-09T09:24:56.740Z,61.58
2023-04-09T09:25:56.797Z,56.45
2023-04-09T09:26:56.752Z,51.08
2023-04-09T09:27:57.397Z,61.26
2023-04-09T09:28:56.755Z,64.79
2023-04-09T09:29:56.740Z,66.77
2023-04-09T09:30:56.727Z,62.87
2023-04-09T09:31:56.766Z,62.14
2023-04-09T09:32:56.717Z,62.61
2023-04-09T09:33:56.651Z,64.55
2023-04-09T09:34:56.663Z,59.59
2023-04-09T09:35:56.670Z,67.92
2023-04-09T09:36:56.668Z,57.61
2023-04-09T09:37:56.657Z,62.95
2023-04-09T09:38:56.650Z,63.95
2023-04-09T09:39:56.617Z,61.35
2023-04-09T09:40:56.614Z,64.21
2023-04-09T09:41:56.650Z,56.53
2023-04-09T09:42:57.394Z,65.92
2023-04-09T09:43:56.637Z,67.79
2023-04-09T09:44:56.649Z,64.64
2023-04-09T09:45:56.654Z,57.11
2023-04-09T09:46:56.618Z,63.28
2023-04-09T09:47:56.577Z,63.14
2023-04-09T09:49:29.329Z,59.83
2023-04-09T09:49:56.565Z,60.71
2023-04-09T09:50:56.563Z,65.39
2023-04-09T09:51:56.520Z,67.52
2023-04-09T09:52:56.488Z,63.44
2023-04-09T09:53:56.483Z,62.99
2023-04-09T09:54:56.531Z,58.32
2023-04-09T09:55:56.603Z,64.78
2023-04-09T09:56:56.553Z,61.71
2023-04-09T09:57:56.472Z,54.95
2023-04-09T09:58:56.462Z,60.81
2023-04-09T09:59:56.476Z,65.44
2023-04-09T10:00:56.549Z,63.75
2023-04-09T10:01:56.553Z,63.49
2023-04-09T10:02:56.569Z,63.28
2023-04-09T10:03:56.458Z,66.89
2023-04-09T10:04:56.413Z,57.66
2023-04-09T10:05:56.418Z,62.26
2023-04-09T10:06:56.444Z,65.56
2023-04-09T10:07:56.398Z,58.45
2023-04-09T10:08:56.390Z,61.38
2023-04-09T10:09:56.364Z,62.61
2023-04-09T10:10:56.430Z,62.13
2023-04-09T10:11:56.373Z,65.54
2023-04-09T10:12:56.364Z,57.55
2023-04-09T10:13:56.353Z,60.00
2023-04-09T10:14:56.388Z,67.52
2023-04-09T10:15:56.362Z,62.18
2023-04-09T10:16:56.358Z,57.11
2023-04-09T10:17:56.374Z,63.68
2023-04-09T10:18:56.310Z,64.50
2023-04-09T10:19:56.351Z,67.72
2023-04-09T10:20:56.320Z,58.45
2023-04-09T10:21:56.277Z,61.40
2023-04-09T10:22:56.312Z,62.74
2023-04-09T10:23:56.288Z,62.32
2023-04-09T10:24:56.288Z,51.09
2023-04-09T10:25:56.242Z,65.54
2023-04-09T10:26:56.972Z,66.35
2023-04-09T10:27:56.243Z,63.63
2023-04-09T10:28:56.255Z,63.57
2023-04-09T10:29:56.296Z,57.75
2023-04-09T10:30:56.321Z,61.93
2023-04-09T10:31:58.762Z,61.12
2023-04-09T10:32:58.145Z,63.35
2023-04-09T10:34:00.295Z,64.69
2023-04-09T10:34:56.198Z,60.07
2023-04-09T10:35:56.279Z,60.72
2023-04-09T10:36:56.330Z,57.56
2023-04-09T10:37:56.230Z,60.84
2023-04-09T10:38:56.192Z,61.42
2023-04-09T10:39:56.184Z,65.70
2023-04-09T10:40:56.169Z,64.01
2023-04-09T10:41:56.136Z,64.18
2023-04-09T10:42:57.015Z,61.93
2023-04-09T10:43:56.982Z,61.94
2023-04-09T10:44:56.228Z,64.13
2023-04-09T10:45:56.091Z,64.19
2023-04-09T10:46:56.299Z,69.96
2023-04-09T10:47:56.250Z,56.25
2023-04-09T10:48:56.095Z,60.46
2023-04-09T10:49:56.137Z,61.34
2023-04-09T10:50:56.104Z,62.70
2023-04-09T10:51:56.079Z,63.48
2023-04-09T10:52:56.043Z,63.96
2023-04-09T10:53:56.048Z,65.17
2023-04-09T10:54:56.081Z,61.73
2023-04-09T10:55:56.110Z,62.82
2023-04-09T10:56:56.061Z,56.51
2023-04-09T10:57:56.015Z,58.56
2023-04-09T10:58:56.018Z,64.60
2023-04-09T10:59:57.026Z,59.28
2023-04-09T11:00:56.033Z,51.73
2023-04-09T11:01:56.044Z,59.10
2023-04-09T11:02:56.169Z,63.35
2023-04-09T11:03:56.136Z,64.08
2023-04-09T11:04:56.054Z,61.51
2023-04-09T11:05:56.102Z,56.25
2023-04-09T11:06:56.119Z,61.38
2023-04-09T11:07:55.999Z,61.58
2023-04-09T11:08:55.930Z,61.10
2023-04-09T11:09:55.982Z,65.71
2023-04-09T11:10:55.957Z,63.31
2023-04-09T11:11:55.911Z,59.82
2023-04-09T11:12:55.915Z,53.72
2023-04-09T11:13:55.961Z,66.07
2023-04-09T11:14:55.917Z,60.42
2023-04-09T11:15:56.463Z,59.26
2023-04-09T11:16:55.875Z,63.08
2023-04-09T11:17:55.971Z,59.78
2023-04-09T11:18:55.932Z,62.56
2023-04-09T11:19:55.839Z,65.59
2023-04-09T11:20:55.886Z,62.07
2023-04-09T11:21:55.831Z,62.66
2023-04-09T11:22:55.833Z,59.67
2023-04-09T11:23:55.814Z,63.96
2023-04-09T11:24:55.813Z,61.79
2023-04-09T11:25:55.796Z,55.61
2023-04-09T11:26:55.838Z,59.48
2023-04-09T11:27:55.968Z,67.55
2023-04-09T11:28:55.797Z,57.73
2023-04-09T11:29:55.770Z,65.09
2023-04-09T11:30:55.800Z,66.61
2023-04-09T11:31:55.902Z,58.71
2023-04-09T11:32:55.830Z,61.37
2023-04-09T11:33:55.860Z,59.02
2023-04-09T11:34:55.686Z,62.72
2023-04-09T11:35:55.764Z,57.35
2023-04-09T11:36:55.704Z,59.63
2023-04-09T11:37:55.720Z,61.14
2023-04-09T11:38:55.760Z,64.44
2023-04-09T11:39:57.744Z,63.93
2023-04-09T11:40:56.676Z,65.41
2023-04-09T11:41:55.840Z,63.18
2023-04-09T11:42:55.661Z,58.17
2023-04-09T11:43:55.663Z,63.97
2023-04-09T11:44:55.726Z,55.69
2023-04-09T11:45:57.474Z,62.03
2023-04-09T11:46:55.723Z,60.13
2023-04-09T11:47:55.754Z,66.45
2023-04-09T11:48:55.649Z,62.95
2023-04-09T11:49:55.602Z,62.62
2023-04-09T11:50:55.614Z,65.71
2023-04-09T11:51:55.641Z,62.41
2023-04-09T11:52:55.602Z,64.94
2023-04-09T11:53:55.609Z,62.39
2023-04-09T11:54:56.584Z,63.92
2023-04-09T11:55:55.718Z,55.85
2023-04-09T11:56:56.428Z,64.28
2023-04-09T11:57:55.573Z,57.86
2023-04-09T11:58:55.625Z,61.64
2023-04-09T11:59:55.528Z,64.33
2023-04-09T12:00:57.647Z,60.32
2023-04-09T12:01:55.592Z,59.77
2023-04-09T12:02:56.562Z,60.96
2023-04-09T12:03:55.667Z,59.89
2023-04-09T12:04:55.620Z,61.16
2023-04-09T12:05:55.534Z,63.25
2023-04-09T12:06:55.651Z,64.69
2023-04-09T12:07:56.587Z,62.78
2023-04-09T12:08:56.470Z,64.59
2023-04-09T12:09:55.462Z,68.90
2023-04-09T12:10:55.455Z,63.72
2023-04-09T12:11:55.524Z,55.26
2023-04-09T12:12:55.470Z,55.54
2023-04-09T12:13:55.468Z,65.97
2023-04-09T12:14:55.461Z,64.27
2023-04-09T12:15:56.218Z,67.24
2023-04-09T12:16:55.535Z,65.37
2023-04-09T12:17:55.465Z,66.62
2023-04-09T12:18:55.507Z,63.87
2023-04-09T12:19:55.432Z,64.03
2023-04-09T12:20:55.530Z,55.38
2023-04-09T12:21:55.381Z,67.33
2023-04-09T12:22:55.378Z,61.65
2023-04-09T12:23:55.360Z,58.74
2023-04-09T12:24:55.389Z,62.09
2023-04-09T12:25:55.564Z,62.00
2023-04-09T12:26:55.368Z,66.94
2023-04-09T12:27:55.321Z,64.40
2023-04-09T12:28:55.365Z,65.16
2023-04-09T12:29:55.452Z,63.10
2023-04-09T12:30:55.355Z,59.69
2023-04-09T12:31:55.303Z,57.91
2023-04-09T12:32:55.357Z,64.32
2023-04-09T12:33:55.303Z,59.68
2023-04-09T12:34:55.275Z,60.58
2023-04-09T12:35:55.362Z,63.41
2023-04-09T12:36:55.282Z,61.68
2023-04-09T12:37:55.328Z,63.61
2023-04-09T12:38:55.261Z,66.17
2023-04-09T12:39:55.245Z,62.27
2023-04-09T12:40:55.256Z,58.48
2023-04-09T12:41:55.265Z,63.52
2023-04-09T12:42:55.226Z,60.20
2023-04-09T12:43:55.230Z,62.64
2023-04-09T12:44:55.216Z,65.34
2023-04-09T12:45:55.215Z,59.95
2023-04-09T12:46:55.180Z,62.90
2023-04-09T12:47:55.242Z,55.63
2023-04-09T12:48:55.191Z,62.81
2023-04-09T12:49:55.208Z,67.63
2023-04-09T12:50:55.171Z,61.30
2023-04-09T12:51:55.177Z,57.16
2023-04-09T12:52:55.233Z,61.18
2023-04-09T12:53:55.349Z,59.07
2023-04-09T12:54:55.137Z,62.54
2023-04-09T12:55:55.134Z,64.26
2023-04-09T12:56:55.136Z,61.93
2023-04-09T12:57:55.106Z,64.10
2023-04-09T12:58:55.292Z,63.89
2023-04-09T12:59:55.119Z,66.17
2023-04-09T13:00:55.116Z,63.64
2023-04-09T13:01:55.172Z,59.31
2023-04-09T13:02:56.191Z,59.50
2023-04-09T13:03:55.375Z,68.16
2023-04-09T13:04:56.131Z,60.89
2023-04-09T13:05:55.041Z,63.22
2023-04-09T13:06:55.035Z,58.51
2023-04-09T13:07:55.058Z,66.42